Time;durP1;ratioP1;P1;durP2;ratioP2;P2;SDS_P1;SDS_P2;PMS_P1;PMS_P2;Temp;Humidity;BMP_temperature;BMP_pressure;BME280_temperature;BME280_humidity;BME280_pressure;Samples;Min_cycle;Max_cycle;Signal;HPM_P1;HPM_P2
2023/09/12 00:00:47;;;;;;;22.83;20.40;;;27.00;72.20;;;;;;4188585;28;20078;-60
2023/09/12 00:03:27;;;;;;;;;;;27.00;72.20;;;;;;4187521;28;20153;-60
2023/09/12 00:06:08;;;;;;;21.77;19.48;;;27.00;72.20;;;;;;4187962;28;19966;-61
2023/09/12 00:08:49;;;;;;;22.85;19.40;;;27.00;72.50;;;;;;4172677;28;20047;-60
2023/09/12 00:11:32;;;;;;;22.10;19.58;;;26.90;72.50;;;;;;4170897;28;20122;-60
2023/09/12 00:14:17;;;;;;;23.70;19.60;;;26.90;72.20;;;;;;4187673;28;20121;-60
2023/09/12 00:16:57;;;;;;;21.52;19.33;;;26.90;72.20;;;;;;4187662;28;20388;-61
2023/09/12 00:19:38;;;;;;;;;;;26.90;72.40;;;;;;4188343;28;20098;-61
2023/09/12 00:22:19;;;;;;;22.25;19.17;;;26.90;72.40;;;;;;4186732;28;19931;-60
2023/09/12 00:25:00;;;;;;;21.88;18.73;;;26.90;72.50;;;;;;4171465;28;20496;-60
2023/09/12 00:27:42;;;;;;;22.00;19.70;;;26.90;72.30;;;;;;4174434;28;20455;-60
2023/09/12 00:30:23;;;;;;;21.98;19.63;;;26.90;72.10;;;;;;4184224;28;20047;-60
2023/09/12 00:33:04;;;;;;;;;;;26.90;72.10;;;;;;4187721;28;20055;-59
2023/09/12 00:35:46;;;;;;;21.42;19.23;;;26.90;72.20;;;;;;4187670;28;20497;-59
2023/09/12 00:38:27;;;;;;;;;;;26.90;72.70;;;;;;4171045;28;20056;-59
2023/09/12 00:41:08;;;;;;;20.83;18.63;;;26.90;72.70;;;;;;4171416;28;19928;-59
2023/09/12 00:43:50;;;;;;;24.05;19.85;;;26.80;72.80;;;;;;4187425;28;20125;-59
2023/09/12 00:46:31;;;;;;;23.02;20.65;;;26.80;72.40;;;;;;4174148;28;20115;-59
2023/09/12 00:49:14;;;;;;;22.73;19.70;;;26.80;71.70;;;;;;4186777;28;20515;-59
2023/09/12 00:51:57;;;;;;;22.52;20.13;;;26.80;71.80;;;;;;4187208;28;20047;-61
2023/09/12 00:54:38;;;;;;;26.50;20.65;;;26.80;72.40;;;;;;4187758;28;20052;-60
2023/09/12 00:57:20;;;;;;;23.33;20.88;;;26.80;72.80;;;;;;4186839;28;20055;-61
2023/09/12 01:00:10;;;;;;;21.83;19.52;;;26.80;72.90;;;;;;4185852;28;20051;-60
2023/09/12 01:02:53;;;;;;;21.83;19.27;;;26.80;73.10;;;;;;4185981;28;20407;-61
2023/09/12 01:05:36;;;;;;;23.08;20.48;;;26.80;73.10;;;;;;4171034;28;20463;-61
2023/09/12 01:08:17;;;;;;;24.38;20.45;;;26.80;73.30;;;;;;4169749;28;20055;-60
2023/09/12 01:10:59;;;;;;;;;;;26.80;73.30;;;;;;4184972;28;20052;-60
2023/09/12 01:13:40;;;;;;;26.92;20.52;;;26.70;73.20;;;;;;4191795;28;19939;-59
2023/09/12 01:16:22;;;;;;;23.17;20.77;;;26.70;73.20;;;;;;4185905;28;20051;-59
2023/09/12 01:19:06;;;;;;;23.58;21.00;;;26.70;73.20;;;;;;4187313;28;20121;-59
2023/09/12 01:22:22;;;;;;;24.95;21.20;;;26.70;73.20;;;;;;4185566;28;20056;-59
2023/09/12 01:25:28;;;;;;;22.58;20.05;;;26.70;73.00;;;;;;4174070;28;20047;-59
2023/09/12 01:28:13;;;;;;;22.35;20.05;;;26.70;73.10;;;;;;4169998;28;20067;-59
2023/09/12 01:30:56;;;;;;;21.50;19.30;;;26.70;73.10;;;;;;4171120;28;20048;-59
2023/09/12 01:33:38;;;;;;;22.42;20.10;;;26.70;73.20;;;;;;4183818;28;20106;-59
2023/09/12 01:36:19;;;;;;;23.23;20.92;;;26.70;73.20;;;;;;4186398;28;20059;-59
2023/09/12 01:39:00;;;;;;;23.85;21.35;;;26.60;73.20;;;;;;4186713;28;20518;-60
2023/09/12 01:41:44;;;;;;;24.83;21.55;;;26.70;73.30;;;;;;4197589;28;20419;-59
2023/09/12 01:44:28;;;;;;;24.17;21.63;;;26.70;73.20;;;;;;4187344;28;20056;-59
2023/09/12 01:47:11;;;;;;;25.30;21.98;;;26.60;73.00;;;;;;4190217;28;20052;-59
2023/09/12 01:49:54;;;;;;;23.85;21.42;;;26.70;73.20;;;;;;4190335;28;20048;-59
2023/09/12 01:52:37;;;;;;;23.42;20.92;;;26.70;73.10;;;;;;4190182;28;20194;-59
2023/09/12 01:55:18;;;;;;;25.13;21.23;;;26.60;73.10;;;;;;4176979;28;20115;-59
2023/09/12 01:58:00;;;;;;;23.08;20.67;;;26.60;73.20;;;;;;4188102;28;20101;-58
2023/09/12 02:00:42;;;;;;;23.20;20.90;;;26.60;73.30;;;;;;4188248;28;20043;-56
2023/09/12 02:03:23;;;;;;;26.58;22.13;;;26.60;73.30;;;;;;4189715;28;20514;-58
2023/09/12 02:06:04;;;;;;;25.58;21.20;;;26.60;73.40;;;;;;4188933;28;20130;-59
2023/09/12 02:08:45;;;;;;;24.92;22.05;;;26.60;73.50;;;;;;4188481;28;20052;-59
2023/09/12 02:11:27;;;;;;;24.90;22.15;;;26.60;73.50;;;;;;4188958;28;20511;-59
2023/09/12 02:14:10;;;;;;;24.30;21.67;;;26.60;73.50;;;;;;4188861;28;20154;-59
2023/09/12 02:16:52;;;;;;;24.95;22.25;;;26.60;73.30;;;;;;4189312;28;20125;-60
2023/09/12 02:19:34;;;;;;;23.88;21.02;;;26.60;73.20;;;;;;4188912;28;20063;-59
2023/09/12 02:22:15;;;;;;;;;;;26.50;73.20;;;;;;4188591;28;20062;-58
2023/09/12 02:24:56;;;;;;;26.17;21.30;;;26.60;73.40;;;;;;4187674;28;19931;-59
2023/09/12 02:27:37;;;;;;;25.52;22.27;;;26.50;73.70;;;;;;4188508;28;20077;-59
2023/09/12 02:30:18;;;;;;;24.23;21.75;;;26.50;73.60;;;;;;4189405;28;20055;-59
2023/09/12 02:33:00;;;;;;;30.23;21.58;;;26.50;73.70;;;;;;4188813;28;20059;-60
2023/09/12 02:35:41;;;;;;;24.38;21.83;;;26.50;73.60;;;;;;4187192;28;20384;-60
2023/09/12 02:38:22;;;;;;;24.92;22.30;;;26.50;73.50;;;;;;4187796;28;20055;-61
2023/09/12 02:41:03;;;;;;;;;;;26.50;73.50;;;;;;4189814;28;20073;-60
2023/09/12 02:43:44;;;;;;;31.85;23.52;;;26.50;73.50;;;;;;4188175;28;19932;-60
2023/09/12 02:46:25;;;;;;;24.88;20.98;;;26.50;73.70;;;;;;4187813;28;20082;-60
2023/09/12 02:49:07;;;;;;;;;;;26.50;73.60;;;;;;4187216;28;20542;-60
2023/09/12 02:51:48;;;;;;;24.00;21.55;;;26.40;73.60;;;;;;4187885;28;19969;-60
2023/09/12 02:54:29;;;;;;;23.95;21.17;;;26.40;74.70;;;;;;4187682;28;20411;-61
2023/09/12 02:57:10;;;;;;;26.10;21.73;;;26.40;73.70;;;;;;4170905;28;20483;-61
2023/09/12 02:59:51;;;;;;;24.02;21.45;;;26.40;73.50;;;;;;4171427;28;20075;-59
2023/09/12 03:02:32;;;;;;;26.42;22.67;;;26.40;73.40;;;;;;4172343;28;20067;-59
2023/09/12 03:05:15;;;;;;;24.90;22.00;;;26.40;73.50;;;;;;4177213;28;20047;-59
2023/09/12 03:07:56;;;;;;;24.92;22.25;;;26.40;73.20;;;;;;4198456;28;20055;-58
2023/09/12 03:10:37;;;;;;;23.08;20.70;;;26.40;73.10;;;;;;4175041;28;20399;-58
2023/09/12 03:13:18;;;;;;;24.67;22.02;;;26.40;73.20;;;;;;4188543;28;20191;-59
2023/09/12 03:15:59;;;;;;;22.55;20.17;;;26.40;73.10;;;;;;4198833;28;20059;-58
2023/09/12 03:18:40;;;;;;;24.58;21.48;;;26.40;73.10;;;;;;4176389;28;20055;-59
2023/09/12 03:21:23;;;;;;;25.80;21.92;;;26.40;73.20;;;;;;4187418;28;20062;-59
2023/09/12 03:24:05;;;;;;;23.60;20.75;;;26.40;73.20;;;;;;4188676;28;20059;-60
2023/09/12 03:26:46;;;;;;;25.83;21.70;;;26.40;73.20;;;;;;4186749;28;20055;-59
2023/09/12 03:29:27;;;;;;;23.23;20.73;;;26.30;73.90;;;;;;4186291;28;20217;-59
2023/09/12 03:32:08;;;;;;;24.27;21.77;;;26.40;73.20;;;;;;4170163;28;20059;-59
2023/09/12 03:34:49;;;;;;;24.08;21.55;;;26.30;73.20;;;;;;4176844;28;20075;-59
2023/09/12 03:37:31;;;;;;;23.48;21.02;;;26.30;73.30;;;;;;4187339;28;20064;-59
2023/09/12 03:40:13;;;;;;;25.33;21.15;;;26.30;73.30;;;;;;4187941;28;20094;-60
2023/09/12 03:42:54;;;;;;;23.83;21.25;;;26.30;73.30;;;;;;4189185;28;20052;-60
2023/09/12 03:45:35;;;;;;;25.42;21.92;;;26.30;73.30;;;;;;4186348;28;20419;-60
2023/09/12 03:48:16;;;;;;;26.67;21.85;;;26.30;73.30;;;;;;4189021;28;20442;-60
2023/09/12 03:50:57;;;;;;;;;;;26.30;73.30;;;;;;4188007;28;20043;-59
2023/09/12 03:53:39;;;;;;;25.27;20.77;;;26.30;73.40;;;;;;4187729;28;19977;-60
2023/09/12 03:56:20;;;;;;;26.35;20.95;;;26.30;73.60;;;;;;4170495;28;20059;-60
2023/09/12 03:59:02;;;;;;;24.05;21.45;;;26.20;73.40;;;;;;4171405;28;20060;-59
2023/09/12 04:01:43;;;;;;;26.45;21.10;;;26.20;73.40;;;;;;4175212;28;20190;-60
2023/09/12 04:04:24;;;;;;;29.02;21.35;;;26.20;73.60;;;;;;4187770;28;20071;-59
2023/09/12 04:07:06;;;;;;;24.58;21.90;;;26.20;73.60;;;;;;4187757;28;20847;-59
2023/09/12 04:09:48;;;;;;;24.48;20.95;;;26.20;73.50;;;;;;4182838;28;20047;-63
2023/09/12 04:12:29;;;;;;;25.27;21.15;;;26.20;73.30;;;;;;4185975;28;20079;-62
2023/09/12 04:15:10;;;;;;;;;;;26.20;73.30;;;;;;4185847;28;20054;-62
2023/09/12 04:17:52;;;;;;;;;;;26.20;73.40;;;;;;4182992;28;19927;-61
2023/09/12 04:20:33;;;;;;;24.05;21.45;;;26.10;73.70;;;;;;4198174;28;19927;-62
2023/09/12 04:23:14;;;;;;;28.85;20.98;;;26.20;73.80;;;;;;4187490;28;20400;-61
2023/09/12 04:25:56;;;;;;;;;;;26.20;73.60;;;;;;4185863;28;20059;-61
2023/09/12 04:28:37;;;;;;;24.58;20.25;;;26.10;73.50;;;;;;4174907;28;19970;-61
2023/09/12 04:31:18;;;;;;;24.80;20.70;;;26.10;73.70;;;;;;4169196;28;20396;-62
2023/09/12 04:33:59;;;;;;;23.77;21.00;;;26.10;73.60;;;;;;4180804;28;20511;-62
2023/09/12 04:36:41;;;;;;;26.73;20.40;;;26.10;73.40;;;;;;4181035;28;20102;-62
2023/09/12 04:39:22;;;;;;;23.25;20.73;;;26.10;73.30;;;;;;4169772;28;20427;-62
2023/09/12 04:42:05;;;;;;;23.88;21.33;;;26.10;73.20;;;;;;4184564;28;20047;-59
2023/09/12 04:44:46;;;;;;;29.08;21.02;;;26.10;73.10;;;;;;4166031;28;20047;-60
2023/09/12 04:47:27;;;;;;;28.40;21.13;;;26.10;73.20;;;;;;4171227;28;20056;-61
2023/09/12 04:50:09;;;;;;;23.73;20.63;;;26.00;73.10;;;;;;4161599;28;20400;-60
2023/09/12 04:52:50;;;;;;;24.88;20.60;;;26.10;73.10;;;;;;4185079;28;20109;-60
2023/09/12 04:55:31;;;;;;;40.47;20.27;;;26.00;73.00;;;;;;4187714;28;20106;-60
2023/09/12 04:58:13;;;;;;;25.90;15.02;;;26.10;73.00;;;;;;4186839;28;20054;-60
2023/09/12 05:00:55;;;;;;;23.38;16.85;;;26.00;72.80;;;;;;4184283;28;20051;-59
2023/09/12 05:03:36;;;;;;;26.55;19.17;;;26.00;72.80;;;;;;4186635;28;20518;-55
2023/09/12 05:06:18;;;;;;;32.92;19.73;;;26.00;72.90;;;;;;4186142;28;20055;-59
2023/09/12 05:08:59;;;;;;;19.95;17.88;;;26.10;73.10;;;;;;4185572;28;20059;-60
2023/09/12 05:11:39;;;;;;;;;;;26.00;73.10;;;;;;4186404;28;20182;-59
2023/09/12 05:14:22;;;;;;;22.15;19.75;;;26.00;73.40;;;;;;4187326;28;20386;-60
2023/09/12 05:17:03;;;;;;;20.77;18.05;;;26.00;73.90;;;;;;4175872;28;20507;-61
2023/09/12 05:19:44;;;;;;;20.83;18.63;;;26.00;73.90;;;;;;4186991;28;20055;-60
2023/09/12 05:22:25;;;;;;;47.03;16.92;;;26.00;73.90;;;;;;4170504;28;20126;-59
2023/09/12 05:25:06;;;;;;;;;;;26.00;73.80;;;;;;4167599;28;20056;-59
2023/09/12 05:27:47;;;;;;;56.95;14.85;;;26.00;74.00;;;;;;4169244;28;19931;-58
2023/09/12 05:30:29;;;;;;;68.70;14.75;;;26.00;74.20;;;;;;4174120;28;20063;-60
2023/09/12 05:33:11;;;;;;;89.05;15.15;;;25.90;74.00;;;;;;4185503;28;20056;-59
2023/09/12 05:35:52;;;;;;;70.68;14.50;;;26.00;73.70;;;;;;4185069;28;20043;-58
2023/09/12 05:38:33;;;;;;;126.45;16.25;;;25.90;73.70;;;;;;4179424;28;20048;-59
2023/09/12 05:41:14;;;;;;;57.08;13.43;;;25.90;73.60;;;;;;4184894;28;20086;-58
2023/09/12 05:43:54;;;;;;;;;;;25.90;73.60;;;;;;4184444;28;20060;-59
2023/09/12 05:46:37;;;;;;;39.58;12.63;;;25.90;73.60;;;;;;4180414;28;19928;-59
2023/09/12 05:49:18;;;;;;;44.75;11.75;;;25.90;73.60;;;;;;4169062;28;20060;-59
2023/09/12 05:51:59;;;;;;;40.88;13.88;;;25.90;73.40;;;;;;4157194;28;20052;-59
2023/09/12 05:54:41;;;;;;;56.20;13.50;;;25.90;73.30;;;;;;4168608;28;20155;-58
2023/09/12 05:57:23;;;;;;;33.10;13.20;;;25.90;73.30;;;;;;4183374;28;20063;-59
2023/09/12 06:00:05;;;;;;;27.40;13.30;;;25.80;73.00;;;;;;4185066;28;20546;-59
2023/09/12 06:02:53;;;;;;;49.85;13.73;;;25.80;72.90;;;;;;4169733;28;20155;-58
2023/09/12 06:05:35;;;;;;;30.90;14.43;;;25.80;72.70;;;;;;4177671;28;20050;-58
2023/09/12 06:08:16;;;;;;;;;;;25.80;72.60;;;;;;4182973;28;20509;-58
2023/09/12 06:10:56;;;;;;;25.30;12.45;;;25.80;72.70;;;;;;4179331;28;20481;-58
2023/09/12 06:13:37;;;;;;;62.42;13.30;;;25.70;72.70;;;;;;4187356;28;20491;-58
2023/09/12 06:16:18;;;;;;;42.92;13.05;;;25.70;72.50;;;;;;4175102;28;20051;-58
2023/09/12 06:19:00;;;;;;;42.78;12.32;;;25.70;72.50;;;;;;4185658;28;20074;-59
2023/09/12 06:21:42;;;;;;;69.20;13.57;;;25.70;73.10;;;;;;4185939;28;20059;-59
2023/09/12 06:24:24;;;;;;;34.78;13.20;;;25.70;72.30;;;;;;4169455;28;20137;-59
2023/09/12 06:27:05;;;;;;;;;;;25.70;72.30;;;;;;4175532;28;20071;-59
2023/09/12 06:29:47;;;;;;;31.27;15.25;;;25.70;72.40;;;;;;4169860;28;20342;-59
2023/09/12 06:32:28;;;;;;;24.60;15.10;;;25.70;72.50;;;;;;4170704;28;20415;-59
2023/09/12 06:35:11;;;;;;;;;;;25.60;72.40;;;;;;4184896;28;20055;-59
2023/09/12 06:37:52;;;;;;;33.30;18.77;;;25.60;72.50;;;;;;4172435;28;19948;-59
2023/09/12 06:40:33;;;;;;;;;;;25.60;72.70;;;;;;4172948;28;20075;-59
2023/09/12 06:43:14;;;;;;;34.38;20.95;;;25.60;73.70;;;;;;4189962;28;20005;-59
2023/09/12 06:45:54;;;;;;;33.03;21.33;;;25.60;73.00;;;;;;4187423;28;20063;-59
2023/09/12 06:48:35;;;;;;;34.38;22.50;;;25.60;73.10;;;;;;4188011;28;20056;-59
2023/09/12 06:51:18;;;;;;;;;;;25.60;73.30;;;;;;4188747;28;20082;-59
2023/09/12 06:53:59;;;;;;;29.58;21.45;;;25.60;73.40;;;;;;4185885;28;20386;-59
2023/09/12 06:56:42;;;;;;;34.33;23.40;;;25.60;73.60;;;;;;4189297;28;20170;-59
2023/09/12 06:59:23;;;;;;;32.30;23.38;;;25.60;73.70;;;;;;4187802;28;20055;-58
2023/09/12 07:02:04;;;;;;;33.95;25.20;;;25.60;73.80;;;;;;4189154;28;20052;-59
2023/09/12 07:04:45;;;;;;;32.28;23.92;;;25.60;73.80;;;;;;4183290;28;20055;-58
2023/09/12 07:07:28;;;;;;;33.97;25.67;;;25.60;74.00;;;;;;4187880;28;20119;-58
2023/09/12 07:10:09;;;;;;;40.92;28.73;;;25.60;74.10;;;;;;4188300;28;20067;-53
2023/09/12 07:13:04;;;;;;;38.53;27.80;;;25.60;74.70;;;;;;4185731;28;20055;-51
2023/09/12 07:15:45;;;;;;;42.22;30.15;;;25.60;75.60;;;;;;4188579;28;20042;-50
2023/09/12 07:18:26;;;;;;;46.42;30.75;;;25.60;75.70;;;;;;4172410;28;20093;-49
2023/09/12 07:21:07;;;;;;;39.78;27.17;;;25.60;76.00;;;;;;4181499;28;20158;-55
2023/09/12 07:23:50;;;;;;;;;;;25.60;76.20;;;;;;4188753;28;20062;-55
2023/09/12 07:26:30;;;;;;;37.67;27.30;;;25.60;76.40;;;;;;4189053;28;19985;-52
2023/09/12 07:29:12;;;;;;;35.03;26.25;;;25.60;76.40;;;;;;4189170;28;20051;-55
2023/09/12 07:31:54;;;;;;;36.30;28.10;;;25.60;76.20;;;;;;4187701;28;20051;-53
2023/09/12 07:34:37;;;;;;;38.17;27.83;;;25.60;76.20;;;;;;4179012;28;20091;-53
2023/09/12 07:37:18;;;;;;;40.33;30.10;;;25.60;76.20;;;;;;4180176;28;20102;-54
2023/09/12 07:40:00;;;;;;;;;;;25.60;76.30;;;;;;4175024;28;20067;-54
2023/09/12 07:42:42;;;;;;;36.67;27.52;;;25.60;76.40;;;;;;4174029;28;20058;-55
2023/09/12 07:45:24;;;;;;;40.20;28.50;;;25.60;76.50;;;;;;4152730;28;20189;-52
2023/09/12 07:48:07;;;;;;;37.72;28.55;;;25.60;76.50;;;;;;4186122;28;20105;-53
2023/09/12 07:50:48;;;;;;;37.72;28.52;;;25.70;76.70;;;;;;4176736;28;20066;-55
2023/09/12 07:53:29;;;;;;;36.53;27.65;;;25.70;76.70;;;;;;4175876;28;20496;-54
2023/09/12 07:56:11;;;;;;;;;;;25.70;76.70;;;;;;4177146;28;20056;-51
2023/09/12 07:58:52;;;;;;;35.80;27.00;;;25.70;76.60;;;;;;4173468;28;20055;-51
2023/09/12 08:01:33;;;;;;;;;;;25.70;76.70;;;;;;4182460;28;20060;-50
2023/09/12 08:04:15;;;;;;;35.50;27.30;;;25.70;76.70;;;;;;4171659;28;19974;-54
2023/09/12 08:06:56;;;;;;;37.88;28.45;;;25.70;76.80;;;;;;4184981;28;20310;-52
2023/09/12 08:09:50;;;;;;;32.95;26.20;;;25.70;76.80;;;;;;4180705;28;20052;-53
2023/09/12 08:12:33;;;;;;;36.70;26.88;;;25.70;76.90;;;;;;4180164;28;20067;-49
2023/09/12 08:15:14;;;;;;;34.80;26.58;;;25.70;76.90;;;;;;4179431;28;20090;-49
2023/09/12 08:17:55;;;;;;;35.20;24.92;;;25.70;76.80;;;;;;4176221;28;20059;-51
2023/09/12 08:20:36;;;;;;;36.95;26.80;;;25.80;77.00;;;;;;4168605;28;20055;-52
2023/09/12 08:23:18;;;;;;;33.47;26.40;;;25.70;76.90;;;;;;4179005;28;20059;-50
2023/09/12 08:25:58;;;;;;;;;;;25.80;77.00;;;;;;4174963;28;20496;-50
2023/09/12 08:28:40;;;;;;;34.00;26.13;;;25.70;77.00;;;;;;4186457;28;19928;-53
2023/09/12 08:31:22;;;;;;;36.50;26.13;;;25.70;77.20;;;;;;4180076;28;20055;-48
2023/09/12 08:34:04;;;;;;;36.03;26.33;;;25.70;77.10;;;;;;4175138;28;20525;-50
2023/09/12 08:36:45;;;;;;;31.17;24.83;;;25.70;77.10;;;;;;4177726;28;20091;-51
2023/09/12 08:39:28;;;;;;;33.00;25.50;;;25.60;77.00;;;;;;4177598;28;20082;-52
2023/09/12 08:42:19;;;;;;;33.30;26.02;;;25.70;77.00;;;;;;4175569;28;20068;-50
2023/09/12 08:45:04;;;;;;;31.25;25.98;;;25.70;77.00;;;;;;4174870;28;20363;-52
2023/09/12 08:47:47;;;;;;;33.97;27.27;;;25.60;77.00;;;;;;4182740;28;20511;-53
2023/09/12 08:50:30;;;;;;;37.60;27.30;;;25.60;77.20;;;;;;4188327;28;20067;-50
2023/09/12 08:53:12;;;;;;;34.42;27.25;;;25.70;77.60;;;;;;4184073;28;20110;-54
2023/09/12 08:55:53;;;;;;;33.90;25.95;;;25.70;77.60;;;;;;4175262;28;20060;-51
2023/09/12 08:58:36;;;;;;;34.03;26.77;;;25.70;77.60;;;;;;4167773;28;20064;-52
2023/09/12 09:01:20;;;;;;;34.95;26.13;;;25.70;77.50;;;;;;4177524;28;20055;-51
2023/09/12 09:04:03;;;;;;;34.42;26.67;;;25.70;77.40;;;;;;4177769;28;20162;-54
2023/09/12 09:06:44;;;;;;;33.03;26.13;;;25.70;77.40;;;;;;4178143;28;20074;-53
2023/09/12 09:09:26;;;;;;;;;;;25.70;77.10;;;;;;4183803;28;20431;-54
2023/09/12 09:12:08;;;;;;;30.88;24.50;;;25.70;77.20;;;;;;4182976;28;20486;-51
2023/09/12 09:14:49;;;;;;;35.33;26.92;;;25.70;77.20;;;;;;4172510;28;20056;-49
2023/09/12 09:17:32;;;;;;;;;;;25.70;77.30;;;;;;4171673;28;20067;-58
2023/09/12 09:20:23;;;;;;;33.08;25.10;;;25.70;77.30;;;;;;4172368;28;19931;-58
2023/09/12 09:23:08;;;;;;;35.80;26.80;;;25.60;77.30;;;;;;4172963;28;20056;-55
2023/09/12 09:25:54;;;;;;;35.30;27.08;;;25.70;77.30;;;;;;4174311;28;20098;-51
2023/09/12 09:28:35;;;;;;;34.83;26.98;;;25.70;77.10;;;;;;4168584;28;20186;-51
2023/09/12 09:31:16;;;;;;;29.95;25.95;;;25.70;77.20;;;;;;4182582;28;20051;-52
2023/09/12 09:33:59;;;;;;;;;;;25.70;77.20;;;;;;4182012;28;20125;-50
2023/09/12 09:36:43;;;;;;;32.45;26.55;;;25.70;77.30;;;;;;4182952;28;19930;-52
2023/09/12 09:39:25;;;;;;;31.40;25.67;;;25.70;77.70;;;;;;4175434;28;20056;-49
2023/09/12 09:42:11;;;;;;;33.63;25.67;;;25.80;77.80;;;;;;4183988;28;20093;-52
2023/09/12 09:44:52;;;;;;;34.40;25.67;;;25.80;78.00;;;;;;4193567;28;20056;-53
2023/09/12 09:47:33;;;;;;;33.72;25.05;;;25.80;78.10;;;;;;4179761;28;20590;-56
2023/09/12 09:50:17;;;;;;;35.90;26.67;;;25.80;78.10;;;;;;4180961;28;20093;-52
2023/09/12 09:52:58;;;;;;;35.65;25.98;;;25.90;78.10;;;;;;4177041;28;20389;-56
2023/09/12 09:55:39;;;;;;;32.20;26.27;;;25.90;78.00;;;;;;4179667;28;20137;-56
2023/09/12 09:58:25;;;;;;;30.83;25.35;;;25.90;77.90;;;;;;4171434;28;20133;-60
2023/09/12 10:01:08;;;;;;;33.90;26.45;;;25.90;78.00;;;;;;4169841;28;20195;-59
2023/09/12 10:03:51;;;;;;;32.67;25.65;;;25.90;77.90;;;;;;4144654;28;20083;-55
2023/09/12 10:06:37;;;;;;;34.72;26.85;;;25.90;77.80;;;;;;4167930;28;20056;-51
2023/09/12 10:09:23;;;;;;;33.30;26.13;;;25.90;77.70;;;;;;4189494;28;20105;-52
2023/09/12 10:12:05;;;;;;;34.05;25.48;;;25.90;77.70;;;;;;4178236;28;20189;-55
2023/09/12 10:14:47;;;;;;;31.58;24.58;;;25.90;77.60;;;;;;4172259;28;20082;-51
2023/09/12 10:17:36;;;;;;;34.22;25.90;;;25.90;77.70;;;;;;4166016;28;20163;-51
2023/09/12 10:20:22;;;;;;;33.70;24.55;;;25.90;77.70;;;;;;4178884;28;20503;-57
2023/09/12 10:23:12;;;;;;;35.17;26.60;;;25.90;77.80;;;;;;4183616;28;20055;-53
2023/09/12 10:25:55;;;;;;;33.95;25.23;;;25.80;77.70;;;;;;4172283;28;20194;-57
2023/09/12 10:28:37;;;;;;;34.70;25.63;;;25.80;77.80;;;;;;4176419;28;20048;-56
2023/09/12 10:31:20;;;;;;;33.67;24.80;;;25.80;78.00;;;;;;4171319;28;20471;-57
2023/09/12 10:34:02;;;;;;;33.05;23.27;;;25.80;78.10;;;;;;4172470;28;20051;-56
2023/09/12 10:36:44;;;;;;;32.13;24.40;;;25.80;78.20;;;;;;4181508;28;20055;-57
2023/09/12 10:39:29;;;;;;;33.83;25.45;;;25.80;78.10;;;;;;4180120;28;20058;-54
2023/09/12 10:42:12;;;;;;;34.05;25.23;;;25.80;78.00;;;;;;4183055;28;20076;-56
2023/09/12 10:44:56;;;;;;;30.33;23.88;;;25.80;78.10;;;;;;4181890;28;20051;-52
2023/09/12 10:47:38;;;;;;;32.40;24.17;;;25.80;77.90;;;;;;4171582;28;20158;-51
2023/09/12 10:50:21;;;;;;;31.77;24.70;;;25.80;78.00;;;;;;4166308;28;20056;-58
2023/09/12 10:53:13;;;;;;;32.22;24.08;;;25.80;78.00;;;;;;4174729;28;21087;-57
2023/09/12 10:56:03;;;;;;;27.10;21.27;;;25.80;78.00;;;;;;4177680;28;20538;-56
2023/09/12 10:59:13;;;;;;;26.40;20.38;;;25.80;78.00;;;;;;4170597;28;20400;-57
2023/09/12 11:01:54;;;;;;;25.83;20.10;;;25.80;77.90;;;;;;4174016;28;20072;-57
2023/09/12 11:04:37;;;;;;;29.05;22.80;;;25.80;77.90;;;;;;4175811;28;20084;-58
2023/09/12 11:07:33;;;;;;;29.30;22.23;;;25.80;78.00;;;;;;4176698;28;20055;-57
2023/09/12 11:10:22;;;;;;;27.55;20.15;;;25.80;77.80;;;;;;4176873;28;20086;-57
2023/09/12 11:13:05;;;;;;;30.33;22.17;;;25.80;77.90;;;;;;4180011;28;20051;-57
2023/09/12 11:16:11;;;;;;;28.67;22.40;;;25.80;78.00;;;;;;4178455;28;20063;-57
2023/09/12 11:19:14;;;;;;;26.67;21.30;;;25.80;77.90;;;;;;4181966;28;20067;-57
2023/09/12 11:21:56;;;;;;;29.50;20.85;;;25.80;78.10;;;;;;4179853;28;20047;-56
2023/09/12 11:24:45;;;;;;;26.00;21.42;;;25.80;77.90;;;;;;4181279;28;20064;-57
2023/09/12 11:27:32;;;;;;;30.02;20.67;;;25.90;77.80;;;;;;4177568;28;20602;-58
2023/09/12 11:30:15;;;;;;;26.73;19.50;;;25.80;77.80;;;;;;4187016;28;20150;-57
2023/09/12 11:32:56;;;;;;;22.40;18.38;;;25.90;78.00;;;;;;4173285;28;20056;-58
2023/09/12 11:35:40;;;;;;;22.85;18.75;;;25.90;77.80;;;;;;4181564;28;20101;-57
2023/09/12 11:38:28;;;;;;;26.10;19.88;;;25.90;78.10;;;;;;4179118;28;20060;-58
2023/09/12 11:41:09;;;;;;;23.98;18.92;;;25.90;77.90;;;;;;4168840;28;20114;-57
2023/09/12 11:43:51;;;;;;;28.02;20.73;;;25.90;77.80;;;;;;4181356;28;20056;-57
2023/09/12 11:46:35;;;;;;;22.27;18.25;;;25.90;77.60;;;;;;4179000;28;20098;-57
2023/09/12 11:49:16;;;;;;;23.63;17.50;;;25.90;77.50;;;;;;4180826;28;20048;-56
2023/09/12 11:51:57;;;;;;;24.67;18.60;;;26.00;77.50;;;;;;4172570;28;20083;-56
2023/09/12 11:54:38;;;;;;;23.50;18.75;;;26.00;77.70;;;;;;4170266;28;20047;-55
2023/09/12 11:57:20;;;;;;;23.27;18.20;;;26.00;77.60;;;;;;4181906;28;20051;-56
2023/09/12 12:00:08;;;;;;;27.08;19.15;;;26.00;77.40;;;;;;4187936;28;20113;-56
2023/09/12 12:02:54;;;;;;;25.25;20.05;;;26.00;77.40;;;;;;4185203;28;20064;-54
2023/09/12 12:05:36;;;;;;;25.85;19.00;;;26.10;77.30;;;;;;4185859;28;20093;-55
2023/09/12 12:08:19;;;;;;;25.67;20.75;;;26.10;77.10;;;;;;4176976;28;20052;-55
2023/09/12 12:11:03;;;;;;;23.35;17.75;;;26.10;76.90;;;;;;4185453;28;20105;-55
2023/09/12 12:13:44;;;;;;;25.80;18.73;;;26.10;76.50;;;;;;4180270;28;20059;-56
2023/09/12 12:16:26;;;;;;;25.10;18.48;;;26.20;76.40;;;;;;4186481;28;20064;-54
2023/09/12 12:19:11;;;;;;;27.80;19.13;;;26.20;76.50;;;;;;4186404;28;20506;-56
2023/09/12 12:21:52;;;;;;;22.13;17.92;;;26.20;76.50;;;;;;4187132;28;20062;-55
2023/09/12 12:24:40;;;;;;;22.33;17.55;;;26.20;76.40;;;;;;4186353;28;20059;-55
2023/09/12 12:27:21;;;;;;;21.52;16.77;;;26.30;76.30;;;;;;4187124;28;20806;-55
2023/09/12 12:30:02;;;;;;;;;;;26.20;76.20;;;;;;4187749;28;20047;-55
2023/09/12 12:32:46;;;;;;;20.27;16.75;;;26.30;76.00;;;;;;4187383;28;20057;-54
2023/09/12 12:35:28;;;;;;;17.77;15.25;;;26.30;75.80;;;;;;4186100;28;20052;-54
2023/09/12 12:38:25;;;;;;;24.95;17.10;;;26.30;75.60;;;;;;4179927;28;20187;-53
2023/09/12 12:41:06;;;;;;;;;;;26.30;75.50;;;;;;4186561;28;20166;-55
2023/09/12 12:43:51;;;;;;;15.80;12.90;;;26.40;75.50;;;;;;4186747;28;19984;-55
2023/09/12 12:46:32;;;;;;;20.13;15.13;;;26.40;75.40;;;;;;4186401;28;20189;-55
2023/09/12 12:49:16;;;;;;;20.25;15.57;;;26.40;75.20;;;;;;4185787;28;20062;-56
2023/09/12 12:51:59;;;;;;;20.17;14.82;;;26.40;75.00;;;;;;4186821;28;20085;-56
2023/09/12 12:54:43;;;;;;;19.90;15.73;;;26.40;75.00;;;;;;4171079;28;20133;-56
2023/09/12 12:57:24;;;;;;;15.95;13.30;;;26.40;75.00;;;;;;4174211;28;20055;-55
2023/09/12 13:00:10;;;;;;;14.07;12.35;;;26.40;75.00;;;;;;4187587;28;20056;-55
2023/09/12 13:02:52;;;;;;;15.30;13.18;;;26.40;74.80;;;;;;4187036;28;20056;-55
2023/09/12 13:05:33;;;;;;;16.40;12.10;;;26.40;74.70;;;;;;4186711;28;20564;-53
2023/09/12 13:08:15;;;;;;;14.32;11.10;;;26.40;74.60;;;;;;4186356;28;20849;-52
2023/09/12 13:10:56;;;;;;;13.35;11.77;;;26.40;74.70;;;;;;4170658;28;20056;-57
2023/09/12 13:13:38;;;;;;;18.25;11.85;;;26.40;74.70;;;;;;4170451;28;20120;-57
2023/09/12 13:16:19;;;;;;;12.50;10.93;;;26.40;74.80;;;;;;4170611;28;20064;-56
2023/09/12 13:19:00;;;;;;;13.20;11.18;;;26.40;74.50;;;;;;4170742;28;20068;-57
2023/09/12 13:21:42;;;;;;;;;;;26.40;74.40;;;;;;4170379;28;20400;-57
2023/09/12 13:24:24;;;;;;;5.57;3.40;;;26.40;73.70;;;;;;4171282;28;20058;-55
2023/09/12 13:27:06;;;;;;;3.47;2.53;;;26.50;73.70;;;;;;4186422;28;20448;-57
2023/09/12 13:29:47;;;;;;;;;;;26.40;73.80;;;;;;4187343;28;20055;-57
2023/09/12 13:32:28;;;;;;;4.55;3.15;;;26.40;73.40;;;;;;4184943;28;19951;-56
2023/09/12 13:35:09;;;;;;;7.78;3.50;;;26.40;73.80;;;;;;4186096;28;20615;-57
2023/09/12 13:37:51;;;;;;;3.65;3.30;;;26.40;73.60;;;;;;4186450;28;20131;-58
2023/09/12 13:40:33;;;;;;;;;;;26.40;73.10;;;;;;4187492;28;20056;-57
2023/09/12 13:43:14;;;;;;;3.42;3.13;;;26.40;73.80;;;;;;4190675;28;19931;-56
2023/09/12 13:45:55;;;;;;;3.78;3.10;;;26.30;74.00;;;;;;4183729;28;20395;-56
2023/09/12 13:48:36;;;;;;;;;;;26.30;73.80;;;;;;4193856;28;20059;-55
2023/09/12 13:51:18;;;;;;;5.00;3.65;;;26.30;73.70;;;;;;4190626;28;20687;-57
2023/09/12 13:53:59;;;;;;;5.53;4.15;;;26.30;74.50;;;;;;4189913;28;20052;-56
2023/09/12 13:56:41;;;;;;;7.18;4.75;;;26.20;74.50;;;;;;4189513;28;20082;-56